createdAt,value
2024-03-07T00:00:51.554Z,101012.08
2024-03-07T00:01:57.940Z,101012.08
2024-03-07T00:03:05.014Z,101005.98
2024-03-07T00:04:08.170Z,101008.59
2024-03-07T00:05:12.337Z,101008.60
2024-03-07T00:06:16.107Z,101006.85
2024-03-07T00:08:29.057Z,101001.63
2024-03-07T00:09:35.017Z,101004.23
2024-03-07T00:10:37.771Z,100998.13
2024-03-07T00:11:40.490Z,100997.27
2024-03-07T00:12:43.586Z,100998.12
2024-03-07T00:13:47.798Z,100994.65
2024-03-07T00:14:49.889Z,101000.75
2024-03-07T00:15:51.974Z,101001.63
2024-03-07T00:16:55.883Z,101000.77
2024-03-07T00:17:58.813Z,100996.41
2024-03-07T00:19:01.067Z,100998.15
2024-03-07T00:20:04.394Z,100993.80
2024-03-07T00:21:06.603Z,100995.55
2024-03-07T00:22:08.943Z,100993.80
2024-03-07T00:23:11.556Z,101001.64
2024-03-07T00:24:14.279Z,100992.05
2024-03-07T00:25:16.908Z,100988.56
2024-03-07T00:26:19.732Z,100991.18
2024-03-07T00:27:21.990Z,100992.91
2024-03-07T00:28:24.502Z,100992.92
2024-03-07T00:29:26.810Z,100995.55
2024-03-07T00:30:29.880Z,100988.56
2024-03-07T00:31:32.502Z,100995.55
2024-03-07T00:32:34.671Z,100992.06
2024-03-07T00:33:51.515Z,100992.94
2024-03-07T00:34:42.240Z,100991.19
2024-03-07T00:35:44.422Z,100996.42
2024-03-07T00:36:47.256Z,100989.45
2024-03-07T00:37:49.331Z,100984.22
2024-03-07T00:38:52.567Z,100995.55
2024-03-07T00:39:54.820Z,100999.89
2024-03-07T00:40:57.299Z,100992.04
2024-03-07T00:41:59.260Z,100997.27
2024-03-07T00:43:01.999Z,100990.33
2024-03-07T00:44:04.726Z,100995.53
2024-03-07T00:45:07.384Z,101001.63
2024-03-07T00:46:10.019Z,100990.33
2024-03-07T00:47:13.019Z,100992.94
2024-03-07T00:48:15.777Z,100993.80
2024-03-07T00:49:18.639Z,100996.42
2024-03-07T00:50:20.698Z,100997.30
2024-03-07T00:51:23.298Z,100992.94
2024-03-07T00:53:24.717Z,100999.05
2024-03-07T00:54:27.283Z,100992.94
2024-03-07T00:55:31.308Z,101001.66
2024-03-07T00:56:33.688Z,100996.42
2024-03-07T00:57:37.335Z,100996.42
2024-03-07T00:58:39.701Z,100994.67
2024-03-07T00:59:41.646Z,100990.33
2024-03-07T01:00:44.009Z,100994.67
2024-03-07T01:01:46.602Z,100985.09
2024-03-07T01:02:49.031Z,100990.33
2024-03-07T01:03:51.375Z,100992.94
2024-03-07T01:04:54.811Z,100996.43
2024-03-07T01:05:57.156Z,100992.04
2024-03-07T01:07:00.775Z,100989.42
2024-03-07T01:08:03.228Z,100998.14
2024-03-07T01:09:05.378Z,100990.33
2024-03-07T01:10:08.412Z,100990.33
2024-03-07T01:11:11.010Z,100993.81
2024-03-07T01:12:14.122Z,100985.08
2024-03-07T01:13:16.444Z,100992.06
2024-03-07T01:14:19.264Z,100991.19
2024-03-07T01:15:21.392Z,100994.69
2024-03-07T01:16:23.694Z,100985.09
2024-03-07T01:17:26.232Z,100985.09
2024-03-07T01:18:28.932Z,100996.42
2024-03-07T01:19:30.988Z,100988.58
2024-03-07T01:20:33.502Z,100987.71
2024-03-07T01:21:38.716Z,100984.22
2024-03-07T01:22:40.489Z,100990.33
2024-03-07T01:23:42.602Z,100989.45
2024-03-07T01:24:45.081Z,100989.42
2024-03-07T01:25:47.549Z,100987.71
2024-03-07T01:26:50.151Z,100990.33
2024-03-07T01:27:52.622Z,100992.04
2024-03-07T01:28:56.088Z,100990.33
2024-03-07T01:29:58.376Z,100987.70
2024-03-07T01:31:00.724Z,100981.59
2024-03-07T01:32:03.292Z,100989.44
2024-03-07T01:33:05.597Z,100987.69
2024-03-07T01:34:07.738Z,100985.95
2024-03-07T01:35:10.329Z,100987.69
2024-03-07T01:36:13.008Z,100985.95
2024-03-07T01:37:15.310Z,100983.34
2024-03-07T01:38:17.459Z,100988.56
2024-03-07T01:39:19.648Z,100977.22
2024-03-07T01:40:21.790Z,100990.30
2024-03-07T01:41:24.960Z,100985.07
2024-03-07T01:42:27.223Z,100985.07
2024-03-07T01:43:29.973Z,100991.17
2024-03-07T01:44:32.225Z,100992.05
2024-03-07T01:45:35.404Z,100991.18
2024-03-07T01:46:37.751Z,100988.58
2024-03-07T01:47:40.162Z,100976.36
2024-03-07T01:48:42.631Z,100988.56
2024-03-07T01:49:45.522Z,100989.44
2024-03-07T01:50:48.981Z,100988.56
2024-03-07T01:51:52.054Z,100990.31
2024-03-07T01:52:55.732Z,100995.55
2024-03-07T01:53:58.415Z,100990.30
2024-03-07T01:55:02.214Z,100984.19
2024-03-07T01:56:05.393Z,100987.67
2024-03-07T01:57:08.463Z,100990.28
2024-03-07T01:58:14.283Z,100986.80
2024-03-07T01:59:17.655Z,100986.80
2024-03-07T02:00:20.906Z,100983.33
2024-03-07T02:01:23.597Z,100990.30
2024-03-07T02:02:26.219Z,100980.72
2024-03-07T02:03:28.793Z,100991.17
2024-03-07T02:04:31.351Z,100986.80
2024-03-07T02:05:34.801Z,100991.16
2024-03-07T02:06:40.352Z,100989.41
2024-03-07T02:07:44.269Z,100987.66
2024-03-07T02:08:46.549Z,100991.15
2024-03-07T02:09:49.023Z,100985.05
2024-03-07T02:10:51.632Z,100992.02
2024-03-07T02:11:53.932Z,100992.02
2024-03-07T02:12:57.423Z,100990.28
2024-03-07T02:14:00.084Z,100988.54
2024-03-07T02:15:02.637Z,100999.01
2024-03-07T02:16:05.286Z,100990.28
2024-03-07T02:17:08.536Z,100989.42
2024-03-07T02:18:11.385Z,100992.03
2024-03-07T02:19:15.432Z,100988.55
2024-03-07T02:20:17.660Z,100991.17
2024-03-07T02:21:19.813Z,100985.94
2024-03-07T02:22:22.724Z,100985.07
2024-03-07T02:23:24.968Z,100997.27
2024-03-07T02:24:26.964Z,100998.15
2024-03-07T02:25:31.051Z,100990.30
2024-03-07T02:26:35.601Z,100989.42
2024-03-07T02:27:38.832Z,100992.91
2024-03-07T02:28:41.105Z,100992.05
2024-03-07T02:29:43.455Z,100992.92
2024-03-07T02:30:45.597Z,100997.28
2024-03-07T02:31:47.686Z,100991.17
2024-03-07T02:32:49.944Z,100998.14
2024-03-07T02:33:52.137Z,100997.27
2024-03-07T02:34:54.203Z,100996.39
2024-03-07T02:35:56.933Z,100995.52
2024-03-07T02:36:59.080Z,100993.77
2024-03-07T02:38:05.121Z,100997.27
2024-03-07T02:39:08.249Z,100992.03
2024-03-07T02:40:11.081Z,100994.66
2024-03-07T02:41:13.149Z,100995.52
2024-03-07T02:42:15.378Z,100991.16
2024-03-07T02:43:17.983Z,100990.28
2024-03-07T02:44:20.441Z,100992.04
2024-03-07T02:45:22.814Z,100993.78
2024-03-07T02:46:25.013Z,100988.55
2024-03-07T02:47:27.527Z,100986.80
2024-03-07T02:48:29.865Z,100991.16
2024-03-07T02:49:32.665Z,100983.31
2024-03-07T02:50:35.242Z,100988.53
2024-03-07T02:51:37.789Z,100989.41
2024-03-07T02:52:40.400Z,100980.70
2024-03-07T02:53:42.487Z,100992.89
2024-03-07T02:54:44.940Z,100985.92
2024-03-07T02:55:48.181Z,100985.06
2024-03-07T02:56:50.683Z,100982.45
2024-03-07T02:57:53.195Z,100985.06
2024-03-07T02:58:55.699Z,100980.68
2024-03-07T02:59:57.897Z,100988.55
2024-03-07T03:01:02.021Z,100977.20
2024-03-07T03:02:04.780Z,100978.94
2024-03-07T03:03:07.399Z,100988.55
2024-03-07T03:04:10.661Z,100984.19
2024-03-07T03:05:13.579Z,100981.58
2024-03-07T03:06:16.030Z,100980.70
2024-03-07T03:07:18.042Z,100982.44
2024-03-07T03:08:20.173Z,100980.70
2024-03-07T03:09:22.250Z,100990.28
2024-03-07T03:12:40.965Z,100989.41
2024-03-07T03:13:43.814Z,100980.69
2024-03-07T03:14:46.209Z,100979.83
2024-03-07T03:15:48.421Z,100977.21
2024-03-07T03:16:50.688Z,100975.48
2024-03-07T03:17:52.950Z,100978.94
2024-03-07T03:18:55.134Z,100979.83
2024-03-07T03:19:57.598Z,100980.69
2024-03-07T03:21:00.077Z,100983.30
2024-03-07T03:22:02.722Z,100985.05
2024-03-07T03:23:14.910Z,100973.73
2024-03-07T03:24:10.517Z,100983.33
2024-03-07T03:25:13.014Z,100984.17
2024-03-07T03:26:15.508Z,100982.43
2024-03-07T03:27:17.436Z,100981.56
2024-03-07T03:28:19.635Z,100985.05
2024-03-07T03:29:21.883Z,100990.27
2024-03-07T03:30:24.266Z,100985.91
2024-03-07T03:31:26.910Z,100993.75
2024-03-07T03:32:29.131Z,100987.67
2024-03-07T03:33:31.406Z,100981.58
2024-03-07T03:34:34.140Z,100992.90
2024-03-07T03:36:46.924Z,100989.43
2024-03-07T03:37:49.277Z,100985.03
2024-03-07T03:38:52.474Z,100986.77
2024-03-07T03:39:55.371Z,100986.78
2024-03-07T03:40:57.540Z,100986.78
2024-03-07T03:41:59.640Z,100985.91
2024-03-07T03:43:02.110Z,100993.77
2024-03-07T03:44:04.491Z,100993.77
2024-03-07T03:45:07.981Z,100991.14
2024-03-07T03:46:11.338Z,100990.28
2024-03-07T03:47:13.820Z,100994.62
2024-03-07T03:48:16.770Z,100997.25
2024-03-07T03:49:19.805Z,100990.28
2024-03-07T03:50:22.848Z,100995.49
2024-03-07T03:51:24.804Z,100992.02
2024-03-07T03:52:26.842Z,100995.51
2024-03-07T03:53:29.043Z,100995.52
2024-03-07T03:54:31.261Z,100997.26
2024-03-07T03:55:35.633Z,100995.52
2024-03-07T03:56:38.056Z,100999.00
2024-03-07T03:57:41.939Z,101002.48
2024-03-07T03:58:44.172Z,100993.77
2024-03-07T03:59:47.155Z,100996.39
2024-03-07T04:00:49.793Z,100993.77
2024-03-07T04:01:52.228Z,100997.26
2024-03-07T04:02:54.604Z,100997.25
2024-03-07T04:03:56.828Z,101002.48
2024-03-07T04:04:58.845Z,100998.98
2024-03-07T04:06:00.995Z,101003.35
2024-03-07T04:07:03.238Z,101002.47
2024-03-07T04:08:05.560Z,101005.95
2024-03-07T04:09:07.505Z,101006.83
2024-03-07T04:10:12.046Z,101005.07
2024-03-07T04:11:14.321Z,101004.19
2024-03-07T04:12:16.871Z,101004.18
2024-03-07T04:13:18.935Z,101004.20
2024-03-07T04:14:21.458Z,101005.92
2024-03-07T04:15:23.759Z,101008.53
2024-03-07T04:16:26.458Z,101002.44
2024-03-07T04:17:28.704Z,101002.44
2024-03-07T04:18:31.223Z,100999.83
2024-03-07T04:21:04.569Z,101010.32
2024-03-07T04:22:07.202Z,101009.43
2024-03-07T04:23:12.669Z,101005.06
2024-03-07T04:24:15.681Z,101000.70
2024-03-07T04:25:19.740Z,101008.55
2024-03-07T04:26:22.362Z,101004.19
2024-03-07T04:27:24.327Z,101005.05
2024-03-07T04:28:26.595Z,101001.56
2024-03-07T04:29:29.124Z,101003.30
2024-03-07T04:30:31.739Z,101010.27
2024-03-07T04:31:33.751Z,100998.97
2024-03-07T04:32:37.978Z,101004.20
2024-03-07T04:33:40.258Z,101015.50
2024-03-07T04:34:42.420Z,101006.81
2024-03-07T04:35:44.840Z,101019.89
2024-03-07T04:36:47.142Z,101004.20
2024-03-07T04:37:50.678Z,101004.20
2024-03-07T04:38:53.536Z,101005.95
2024-03-07T04:39:55.913Z,101013.77
2024-03-07T04:40:59.045Z,101012.05
2024-03-07T04:42:05.598Z,101015.52
2024-03-07T04:43:07.786Z,101014.64
2024-03-07T04:44:10.008Z,101005.92
2024-03-07T04:45:13.072Z,101018.12
2024-03-07T04:46:15.359Z,101019.87
2024-03-07T04:47:17.227Z,101014.64
2024-03-07T04:48:19.318Z,101014.64
2024-03-07T04:49:22.635Z,101011.16
2024-03-07T04:50:25.325Z,101018.12
2024-03-07T04:51:27.791Z,101018.14
2024-03-07T04:52:29.987Z,101016.41
2024-03-07T04:53:32.467Z,101018.14
2024-03-07T04:54:34.608Z,101014.66
2024-03-07T04:55:36.840Z,101023.37
2024-03-07T04:56:39.306Z,101024.24
2024-03-07T04:57:41.624Z,101027.70
2024-03-07T04:58:43.757Z,101023.35
2024-03-07T04:59:45.988Z,101024.23
2024-03-07T05:00:48.645Z,101027.72
2024-03-07T05:01:51.300Z,101032.06
2024-03-07T05:02:53.437Z,101025.10
2024-03-07T05:03:55.805Z,101031.20
2024-03-07T05:04:58.192Z,101029.45
2024-03-07T05:06:00.675Z,101029.45
2024-03-07T05:07:03.227Z,101026.83
2024-03-07T05:08:06.181Z,101027.70
2024-03-07T05:09:09.610Z,101025.95
2024-03-07T05:10:12.527Z,101031.21
2024-03-07T05:11:14.938Z,101025.10
2024-03-07T05:12:17.094Z,101031.20
2024-03-07T05:13:19.316Z,101026.84
2024-03-07T05:14:22.110Z,101038.17
2024-03-07T05:15:24.664Z,101038.18
2024-03-07T05:16:31.413Z,101038.18
2024-03-07T05:17:33.912Z,101031.20
2024-03-07T05:18:36.658Z,101034.68
2024-03-07T05:19:38.847Z,101045.14
2024-03-07T05:20:41.385Z,101039.91
2024-03-07T05:21:43.858Z,101040.78
2024-03-07T05:22:46.331Z,101036.42
2024-03-07T05:23:49.576Z,101046.87
2024-03-07T05:24:51.680Z,101044.23
2024-03-07T05:25:54.104Z,101042.48
2024-03-07T05:26:56.334Z,101039.00
2024-03-07T05:27:58.348Z,101045.11
2024-03-07T05:29:02.765Z,101051.21
2024-03-07T05:30:09.321Z,101044.24
2024-03-07T05:31:10.733Z,101047.72
2024-03-07T05:33:31.269Z,101043.41
2024-03-07T05:34:33.392Z,101048.57
2024-03-07T05:35:36.577Z,101049.45
2024-03-07T05:36:39.169Z,101049.47
2024-03-07T05:37:42.512Z,101043.36
2024-03-07T05:38:45.383Z,101058.18
2024-03-07T05:39:52.316Z,101050.34
2024-03-07T05:40:54.665Z,101050.34
2024-03-07T05:41:58.797Z,101045.12
2024-03-07T05:43:00.885Z,101047.74
2024-03-07T05:44:03.252Z,101047.74
2024-03-07T05:45:07.006Z,101044.27
2024-03-07T05:46:09.470Z,101048.64
2024-03-07T05:47:11.632Z,101053.00
2024-03-07T05:48:16.819Z,101051.26
2024-03-07T05:49:19.620Z,101051.26
2024-03-07T05:50:23.179Z,101051.24
2024-03-07T05:51:25.630Z,101051.24
2024-03-07T05:52:27.739Z,101052.11
2024-03-07T05:53:30.302Z,101054.72
2024-03-07T05:54:34.108Z,101048.62
2024-03-07T05:55:36.405Z,101052.11
2024-03-07T05:56:39.433Z,101055.59
2024-03-07T05:57:44.300Z,101052.97
2024-03-07T05:58:46.214Z,101049.49
2024-03-07T05:59:48.669Z,101051.22
2024-03-07T06:00:51.584Z,101054.70
2024-03-07T06:01:54.307Z,101053.83
2024-03-07T06:02:57.252Z,101059.05
2024-03-07T06:03:59.778Z,101061.66
2024-03-07T06:05:01.983Z,101065.14
2024-03-07T06:06:04.651Z,101062.52
2024-03-07T06:07:07.227Z,101062.52
2024-03-07T06:08:10.710Z,101063.39
2024-03-07T06:09:14.209Z,101062.52
2024-03-07T06:10:17.161Z,101063.39
2024-03-07T06:11:19.515Z,101065.13
2024-03-07T06:12:27.136Z,101065.98
2024-03-07T06:13:25.952Z,101066.85
2024-03-07T06:14:28.181Z,101059.03
2024-03-07T06:15:30.224Z,101063.36
2024-03-07T06:16:35.655Z,101066.85
2024-03-07T06:17:38.002Z,101071.20
2024-03-07T06:19:50.457Z,101057.31
2024-03-07T06:20:53.387Z,101073.81
2024-03-07T06:21:55.990Z,101063.36
2024-03-07T06:22:58.629Z,101075.56
2024-03-07T06:24:02.133Z,101061.63
2024-03-07T06:25:04.706Z,101066.88
2024-03-07T06:26:07.484Z,101065.98
2024-03-07T06:27:09.672Z,101068.59
2024-03-07T06:28:12.758Z,101069.47
2024-03-07T06:29:19.269Z,101068.59
2024-03-07T06:30:21.896Z,101065.98
2024-03-07T06:31:24.605Z,101063.39
2024-03-07T06:32:26.835Z,101072.98
2024-03-07T06:33:29.197Z,101072.11
2024-03-07T06:34:31.127Z,101068.59
2024-03-07T06:35:34.205Z,101068.59
2024-03-07T06:36:37.153Z,101066.88
2024-03-07T06:38:48.745Z,101059.95
2024-03-07T06:39:51.432Z,101069.48
2024-03-07T06:40:53.576Z,101065.98
2024-03-07T06:41:56.106Z,101064.25
2024-03-07T06:42:58.789Z,101071.23
2024-03-07T06:44:02.409Z,101066.00
2024-03-07T06:45:05.290Z,101072.98
2024-03-07T06:46:07.981Z,101080.81
2024-03-07T06:47:10.420Z,101079.97
2024-03-07T06:48:12.766Z,101075.61
2024-03-07T06:49:14.969Z,101073.01
2024-03-07T06:50:27.017Z,101073.87
2024-03-07T06:51:21.496Z,101068.66
2024-03-07T06:52:23.653Z,101066.91
2024-03-07T06:53:25.487Z,101066.05
2024-03-07T06:54:27.457Z,101072.16
2024-03-07T06:55:31.598Z,101077.38
2024-03-07T06:56:34.356Z,101079.13
2024-03-07T06:57:36.482Z,101073.04
2024-03-07T06:58:39.695Z,101080.01
2024-03-07T06:59:43.124Z,101075.66
2024-03-07T07:00:45.360Z,101076.52
2024-03-07T07:01:47.581Z,101080.01
2024-03-07T07:02:50.461Z,101086.09
2024-03-07T07:03:52.720Z,101085.23
2024-03-07T07:04:55.037Z,101082.62
2024-03-07T07:05:57.209Z,101084.37
2024-03-07T07:06:59.440Z,101087.86
2024-03-07T07:08:01.836Z,101087.86
2024-03-07T07:09:04.099Z,101086.98
2024-03-07T07:10:07.078Z,101085.25
2024-03-07T07:11:09.310Z,101086.09
2024-03-07T07:12:12.334Z,101086.09
2024-03-07T07:13:14.731Z,101095.70
2024-03-07T07:14:17.286Z,101091.31
2024-03-07T07:15:19.680Z,101086.96
2024-03-07T07:16:22.250Z,101091.33
2024-03-07T07:17:24.887Z,101086.12
2024-03-07T07:18:27.756Z,101085.24
2024-03-07T07:19:30.278Z,101086.09
2024-03-07T07:20:32.415Z,101089.59
2024-03-07T07:21:35.063Z,101094.84
2024-03-07T07:22:38.053Z,101104.43
2024-03-07T07:23:42.274Z,101093.09
2024-03-07T07:24:45.789Z,101096.59
2024-03-07T07:25:49.786Z,101095.73
2024-03-07T07:26:54.123Z,101096.61
2024-03-07T07:27:56.940Z,101090.50
2024-03-07T07:28:58.919Z,101092.24
2024-03-07T07:30:01.943Z,101094.84
2024-03-07T07:31:05.053Z,101098.33
2024-03-07T07:32:07.309Z,101095.71
2024-03-07T07:33:09.489Z,101099.19
2024-03-07T07:34:11.826Z,101101.80
2024-03-07T07:35:14.035Z,101099.17
2024-03-07T07:36:16.261Z,101097.43
2024-03-07T07:37:18.592Z,101096.55
2024-03-07T07:38:20.675Z,101088.71
2024-03-07T07:39:23.039Z,101101.80
2024-03-07T07:40:25.734Z,101093.97
2024-03-07T07:41:28.545Z,101089.59
2024-03-07T07:42:30.560Z,101091.37
2024-03-07T07:43:41.897Z,101096.59
2024-03-07T07:44:38.316Z,101090.50
2024-03-07T07:45:40.491Z,101099.21
2024-03-07T07:46:43.165Z,101093.98
2024-03-07T07:47:47.010Z,101100.96
2024-03-07T07:48:49.517Z,101094.87
2024-03-07T07:49:52.540Z,101094.87
2024-03-07T07:50:54.956Z,101097.50
2024-03-07T07:51:57.154Z,101093.13
2024-03-07T07:52:59.639Z,101097.48
2024-03-07T07:54:01.782Z,101094.87
2024-03-07T07:55:04.410Z,101093.12
2024-03-07T07:56:08.943Z,101096.62
2024-03-07T07:57:11.262Z,101096.62
2024-03-07T07:58:13.455Z,101094.00
2024-03-07T07:59:15.598Z,101100.12
2024-03-07T08:00:19.561Z,101095.75
2024-03-07T08:01:22.197Z,101089.66
2024-03-07T08:02:24.665Z,101101.00
2024-03-07T08:03:26.741Z,101101.87
2024-03-07T08:04:28.704Z,101094.03
2024-03-07T08:05:32.149Z,101098.39
2024-03-07T08:06:34.472Z,101100.14
2024-03-07T08:07:36.597Z,101102.75
2024-03-07T08:08:38.834Z,101102.77
2024-03-07T08:09:41.699Z,101101.91
2024-03-07T08:10:45.877Z,101103.66
2024-03-07T08:11:48.827Z,101095.82
2024-03-07T08:12:51.003Z,101098.41
2024-03-07T08:13:53.414Z,101103.66
2024-03-07T08:14:56.861Z,101102.78
2024-03-07T08:15:59.452Z,101093.18
2024-03-07T08:17:01.778Z,101103.66
2024-03-07T08:18:04.632Z,101101.92
2024-03-07T08:19:07.327Z,101106.27
2024-03-07T08:20:12.045Z,101105.41
2024-03-07T08:21:14.459Z,101104.55
2024-03-07T08:22:17.111Z,101099.31
2024-03-07T08:23:19.389Z,101105.42
2024-03-07T08:24:22.508Z,101103.67
2024-03-07T08:25:28.696Z,101107.17
2024-03-07T08:26:31.295Z,101103.69
2024-03-07T08:27:33.221Z,101103.69
2024-03-07T08:28:35.696Z,101111.55
2024-03-07T08:29:37.760Z,101101.95
2024-03-07T08:30:40.308Z,101103.69
2024-03-07T08:31:42.481Z,101102.81
2024-03-07T08:34:03.048Z,101101.95
2024-03-07T08:35:06.132Z,101103.66
2024-03-07T08:36:08.905Z,101103.67
2024-03-07T08:37:11.686Z,101101.92
2024-03-07T08:38:13.914Z,101101.94
2024-03-07T08:39:18.724Z,101111.55
2024-03-07T08:40:25.183Z,101105.44
2024-03-07T08:41:26.456Z,101104.56
2024-03-07T08:42:28.604Z,101103.69
2024-03-07T08:43:30.886Z,101108.94
2024-03-07T08:44:33.382Z,101105.42
2024-03-07T08:45:36.408Z,101107.20
2024-03-07T08:46:39.202Z,101107.19
2024-03-07T08:47:41.407Z,101108.05
2024-03-07T08:48:43.510Z,101108.92
2024-03-07T08:49:46.185Z,101108.92
2024-03-07T08:50:49.022Z,101107.19
2024-03-07T08:51:51.209Z,101115.03
2024-03-07T08:52:53.423Z,101112.41
2024-03-07T08:53:55.648Z,101108.94
2024-03-07T08:54:58.882Z,101104.58
2024-03-07T08:56:00.958Z,101103.70
2024-03-07T08:57:03.567Z,101106.31
2024-03-07T08:58:05.735Z,101113.30
2024-03-07T08:59:08.249Z,101108.92
2024-03-07T09:00:13.488Z,101106.31
2024-03-07T09:01:15.644Z,101107.16
2024-03-07T09:02:18.860Z,101107.16
2024-03-07T09:03:20.894Z,101113.27
2024-03-07T09:04:23.567Z,101116.73
2024-03-07T09:05:27.208Z,101118.48
2024-03-07T09:06:29.474Z,101119.38
2024-03-07T09:07:32.252Z,101111.52
2024-03-07T09:08:35.053Z,101115.89
2024-03-07T09:09:37.224Z,101120.25
2024-03-07T09:10:40.075Z,101119.38
2024-03-07T09:11:44.809Z,101119.39
2024-03-07T09:12:49.115Z,101111.55
2024-03-07T09:13:51.227Z,101110.67
2024-03-07T09:14:54.442Z,101115.03
2024-03-07T09:15:56.732Z,101117.66
2024-03-07T09:16:59.195Z,101111.53
2024-03-07T09:18:01.414Z,101117.64
2024-03-07T09:19:03.725Z,101115.91
2024-03-07T09:20:08.834Z,101109.80
2024-03-07T09:21:11.411Z,101115.05
2024-03-07T09:22:13.986Z,101112.45
2024-03-07T09:23:16.689Z,101117.69
2024-03-07T09:24:20.245Z,101115.95
2024-03-07T09:25:26.475Z,101121.19
2024-03-07T09:26:29.938Z,101115.95
2024-03-07T09:27:32.090Z,101115.95
2024-03-07T09:28:34.286Z,101115.08
2024-03-07T09:29:36.506Z,101117.70
2024-03-07T09:30:39.438Z,101122.05
2024-03-07T09:31:42.323Z,101113.34
2024-03-07T09:32:44.843Z,101117.70
2024-03-07T09:33:47.535Z,101114.22
2024-03-07T09:34:50.080Z,101117.70
2024-03-07T09:35:53.184Z,101117.70
2024-03-07T09:36:55.451Z,101115.95
2024-03-07T09:37:58.234Z,101118.56
2024-03-07T09:39:01.982Z,101116.81
2024-03-07T09:40:06.218Z,101132.50
2024-03-07T09:41:08.554Z,101118.56
2024-03-07T09:42:12.975Z,101121.17
2024-03-07T09:43:17.930Z,101118.55
2024-03-07T09:44:24.019Z,101123.80
2024-03-07T09:45:30.339Z,101115.95
2024-03-07T09:46:33.534Z,101116.82
2024-03-07T09:47:36.074Z,101121.17
2024-03-07T09:48:38.953Z,101120.31
2024-03-07T09:49:41.668Z,101124.69
2024-03-07T09:50:46.604Z,101118.58
2024-03-07T09:51:51.754Z,101122.94
2024-03-07T09:52:54.870Z,101117.70
2024-03-07T09:53:59.489Z,101116.83
2024-03-07T09:55:02.180Z,101115.06
2024-03-07T09:56:07.365Z,101113.34
2024-03-07T09:57:11.649Z,101116.84
2024-03-07T09:58:17.482Z,101117.69
2024-03-07T09:59:21.029Z,101108.09
2024-03-07T10:00:23.499Z,101114.22
2024-03-07T10:01:31.306Z,101110.73
2024-03-07T10:02:36.882Z,101106.38
2024-03-07T10:03:42.671Z,101112.48
2024-03-07T10:04:47.181Z,101106.38
2024-03-07T10:05:49.930Z,101111.62
2024-03-07T10:06:53.396Z,101103.77
2024-03-07T10:07:55.756Z,101109.01
2024-03-07T10:08:59.079Z,101101.16
2024-03-07T10:10:01.370Z,101102.03
2024-03-07T10:11:04.147Z,101104.63
2024-03-07T10:12:07.431Z,101104.63
2024-03-07T10:13:09.914Z,101100.27
2024-03-07T10:14:11.995Z,101098.53
2024-03-07T10:15:14.199Z,101105.52
2024-03-07T10:16:17.199Z,101096.79
2024-03-07T10:17:20.355Z,101097.66
2024-03-07T10:18:23.042Z,101102.03
2024-03-07T10:19:25.307Z,101103.78
2024-03-07T10:20:28.291Z,101103.79
2024-03-07T10:21:30.346Z,101098.55
2024-03-07T10:22:33.046Z,101098.55
2024-03-07T10:23:35.261Z,101105.55
2024-03-07T10:24:37.627Z,101104.67
2024-03-07T10:25:42.861Z,101096.81
2024-03-07T10:26:45.298Z,101095.95
2024-03-07T10:27:47.838Z,101102.92
2024-03-07T10:28:50.089Z,101098.56
2024-03-07T10:29:56.071Z,101095.06
2024-03-07T10:30:58.837Z,101097.69
2024-03-07T10:32:05.434Z,101096.81
2024-03-07T10:33:05.914Z,101100.31
2024-03-07T10:34:08.002Z,101100.30
2024-03-07T10:35:10.199Z,101098.55
2024-03-07T10:36:12.809Z,101101.18
2024-03-07T10:37:16.538Z,101100.30
2024-03-07T10:38:18.980Z,101102.92
2024-03-07T10:39:21.582Z,101095.06
2024-03-07T10:40:24.059Z,101096.80
2024-03-07T10:41:28.803Z,101098.55
2024-03-07T10:42:32.791Z,101093.31
2024-03-07T10:43:38.625Z,101093.31
2024-03-07T10:46:17.666Z,101092.45
2024-03-07T10:47:20.896Z,101088.95
2024-03-07T10:48:27.780Z,101094.19
2024-03-07T10:49:33.729Z,101093.31
2024-03-07T10:51:08.114Z,101099.42
2024-03-07T10:53:47.632Z,101093.34
2024-03-07T10:56:18.494Z,101091.59
2024-03-07T10:57:33.917Z,101091.57
2024-03-07T10:59:01.592Z,101092.45
2024-03-07T11:00:05.173Z,101093.33
2024-03-07T11:01:10.181Z,101094.19
2024-03-07T11:02:35.009Z,101094.19
2024-03-07T11:03:38.177Z,101098.55
2024-03-07T11:04:42.344Z,101095.08
2024-03-07T11:05:46.097Z,101098.57
2024-03-07T11:06:48.788Z,101094.20
2024-03-07T11:07:51.923Z,101089.84
2024-03-07T11:08:56.907Z,101088.97
2024-03-07T11:10:02.612Z,101089.84
2024-03-07T11:11:05.453Z,101093.33
2024-03-07T11:12:09.554Z,101088.09
2024-03-07T11:13:15.150Z,101090.72
2024-03-07T11:14:18.730Z,101090.72
2024-03-07T11:15:23.599Z,101094.21
2024-03-07T11:16:26.925Z,101095.94
2024-03-07T11:17:29.705Z,101096.80
2024-03-07T11:18:32.478Z,101088.11
2024-03-07T11:19:35.419Z,101093.34
2024-03-07T11:20:40.176Z,101091.59
2024-03-07T11:21:42.815Z,101094.19
2024-03-07T11:22:45.910Z,101086.33
2024-03-07T11:23:48.455Z,101092.45
2024-03-07T11:26:14.917Z,101082.84
2024-03-07T11:27:17.357Z,101081.09
2024-03-07T11:28:19.642Z,101081.97
2024-03-07T11:29:42.594Z,101088.09
2024-03-07T11:30:44.987Z,101079.36
2024-03-07T11:31:47.336Z,101075.88
2024-03-07T11:32:55.152Z,101075.88
2024-03-07T11:34:17.922Z,101077.63
2024-03-07T11:35:33.814Z,101079.38
2024-03-07T11:36:43.376Z,101072.39
2024-03-07T11:37:46.122Z,101072.39
2024-03-07T11:38:49.310Z,101070.64
2024-03-07T11:39:51.860Z,101078.50
2024-03-07T11:40:54.275Z,101073.27
2024-03-07T11:41:56.555Z,101070.64
2024-03-07T11:42:58.864Z,101075.88
2024-03-07T11:44:01.132Z,101071.51
2024-03-07T11:45:04.109Z,101067.14
2024-03-07T11:46:07.273Z,101068.89
2024-03-07T11:47:09.650Z,101074.13
2024-03-07T11:48:12.322Z,101073.27
2024-03-07T11:49:14.459Z,101069.73
2024-03-07T11:50:17.945Z,101068.00
2024-03-07T11:51:20.438Z,101071.49
2024-03-07T11:52:22.940Z,101064.50
2024-03-07T11:53:26.161Z,101076.73
2024-03-07T11:54:28.889Z,101073.23
2024-03-07T11:56:44.424Z,101068.88
2024-03-07T11:57:46.952Z,101071.52
2024-03-07T11:58:52.089Z,101068.02
2024-03-07T11:59:54.809Z,101065.41
2024-03-07T12:00:57.707Z,101061.88
2024-03-07T12:02:00.837Z,101069.74
2024-03-07T12:03:03.844Z,101063.63
2024-03-07T12:04:07.355Z,101061.89
2024-03-07T12:05:10.030Z,101068.88
2024-03-07T12:06:14.297Z,101064.52
2024-03-07T12:07:17.180Z,101072.38
2024-03-07T12:08:19.751Z,101069.75
2024-03-07T12:09:23.003Z,101069.75
2024-03-07T12:10:26.178Z,101062.77
2024-03-07T12:11:29.483Z,101063.64
2024-03-07T12:12:32.447Z,101062.77
2024-03-07T12:13:36.041Z,101067.14
2024-03-07T12:14:38.667Z,101065.39
2024-03-07T12:15:41.438Z,101064.52
2024-03-07T12:16:44.505Z,101062.77
2024-03-07T12:17:48.703Z,101060.16
2024-03-07T12:18:51.677Z,101054.91
2024-03-07T12:19:54.590Z,101060.16